Time;durP1;ratioP1;P1;durP2;ratioP2;P2;SDS_P1;SDS_P2;PMS_P1;PMS_P2;Temp;Humidity;BMP_temperature;BMP_pressure;BME280_temperature;BME280_humidity;BME280_pressure;Samples;Min_cycle;Max_cycle;Signal;HPM_P1;HPM_P2
2023/09/15 00:00:34;;;;;;;3.67;3.28;;;16.40;1.00;;;;;;5030259;28;20398;-91
2023/09/15 00:05:51;;;;;;;4.40;3.60;;;16.40;1.00;;;;;;5032690;28;20909;-91
2023/09/15 00:08:21;;;;;;;3.95;3.55;;;16.30;1.00;;;;;;5030889;28;20418;-91
2023/09/15 00:10:50;;;;;;;4.47;4.07;;;15.90;1.00;;;;;;5029794;28;20457;-91
2023/09/15 00:13:24;;;;;;;4.40;3.60;;;16.40;1.00;;;;;;5029787;28;20416;-92
2023/09/15 00:22:15;;;;;;;3.70;3.40;;;16.90;1.00;;;;;;5036540;23;20516;-92
2023/09/15 00:24:47;;;;;;;4.38;3.97;;;16.10;1.00;;;;;;5013068;28;20686;-92
2023/09/15 00:34:48;;;;;;;3.50;3.20;;;17.30;1.00;;;;;;5031921;28;20377;-91
2023/09/15 00:37:32;;;;;;;4.38;3.30;;;16.20;1.00;;;;;;5013988;28;20395;-91
2023/09/15 00:40:40;;;;;;;3.92;3.53;;;16.10;1.00;;;;;;5009990;28;20397;-92
2023/09/15 00:43:12;;;;;;;4.03;3.50;;;17.10;1.00;;;;;;4997807;28;20391;-92
2023/09/15 00:48:45;;;;;;;3.60;3.30;;;16.00;1.00;;;;;;5008584;28;20417;-92
2023/09/15 00:51:14;;;;;;;4.18;3.80;;;16.10;1.00;;;;;;4997780;28;20385;-92
2023/09/15 00:56:54;;;;;;;;;;;;;;;;;;;;;
2023/09/15 01:07:07;;;;;;;4.40;4.00;;;19.00;1.00;;;;;;4937517;29;20891;-90
2023/09/15 01:10:21;;;;;;;3.45;3.22;;;19.20;1.00;;;;;;4922192;29;20431;-90
2023/09/15 01:41:40;;;;;;;5.55;3.97;;;15.10;1.00;;;;;;5043030;28;20424;-90
2023/09/15 01:44:12;;;;;;;5.55;4.00;;;15.20;1.00;;;;;;5005023;28;20401;-90
2023/09/15 01:46:49;;;;;;;4.38;3.97;;;15.10;1.00;;;;;;5005611;28;20389;-91
2023/09/15 01:49:55;;;;;;;5.10;4.20;;;16.10;1.00;;;;;;5003030;28;20776;-91
2023/09/15 01:57:05;;;;;;;;;;;;;;;;;;;;;
2023/09/15 03:29:00;;;;;;;4.80;3.80;;;;;;;;;;4970823;28;20454;-92
2023/09/15 03:31:50;;;;;;;5.10;3.90;;;14.10;1.00;;;;;;5029369;28;20405;-91
2023/09/15 03:37:40;;;;;;;4.00;3.70;;;14.10;1.00;;;;;;4964563;28;20394;-91
2023/09/15 03:40:32;;;;;;;4.10;3.70;;;;;;;;;;4938214;29;20402;-91
2023/09/15 03:45:52;;;;;;;6.05;4.60;;;14.00;1.00;;;;;;4996166;28;20393;-92
2023/09/15 03:48:41;;;;;;;3.58;3.20;;;;;;;;;;4977644;28;20968;-91
2023/09/15 03:51:15;;;;;;;4.70;3.67;;;14.10;1.00;;;;;;5010223;28;20469;-91
2023/09/15 03:53:46;;;;;;;3.53;3.00;;;;;;;;;;4978389;28;20525;-91
2023/09/15 03:56:28;;;;;;;5.40;3.57;;;14.10;1.00;;;;;;5013090;28;20933;-91
2023/09/15 03:59:19;;;;;;;4.00;3.45;;;14.30;1.00;;;;;;4979181;28;20391;-91
2023/09/15 04:01:54;;;;;;;8.02;3.53;;;14.10;1.00;;;;;;4977847;28;20886;-91
2023/09/15 04:04:34;;;;;;;4.07;3.67;;;14.20;1.00;;;;;;4977484;28;21022;-91
2023/09/15 04:07:38;;;;;;;4.15;3.30;;;13.90;1.00;;;;;;4959831;28;20931;-91
2023/09/15 04:22:20;;;;;;;5.18;3.50;;;13.90;1.00;;;;;;5016176;22;20520;-91
2023/09/15 04:25:22;;;;;;;;;;;;;;;;;;;;;
2023/09/15 04:28:58;;;;;;;;;;;;;;;;;;;;;
2023/09/15 04:54:58;;;;;;;5.70;3.67;;;;;;;;;;5014139;28;20448;-87
2023/09/15 04:57:24;;;;;;;6.30;3.35;;;;;;;;;;5014347;28;20395;-85
2023/09/15 04:59:53;;;;;;;6.82;3.83;;;;;;;;;;5013921;28;20467;-87
2023/09/15 05:02:37;;;;;;;5.35;3.70;;;;;;;;;;5010791;28;20494;-87
2023/09/15 05:05:03;;;;;;;4.30;3.33;;;;;;;;;;5025058;28;20383;-87
2023/09/15 05:07:39;;;;;;;5.10;3.05;;;;;;;;;;5033546;28;20810;-88
2023/09/15 05:10:08;;;;;;;6.82;3.95;;;13.90;1.00;;;;;;5028074;28;20404;-84
2023/09/15 05:12:34;;;;;;;5.50;3.78;;;13.90;1.00;;;;;;5014328;28;20397;-89
2023/09/15 05:14:59;;;;;;;4.53;3.87;;;13.80;1.00;;;;;;5014865;28;20396;-89
2023/09/15 05:17:26;;;;;;;5.63;3.70;;;13.10;1.00;;;;;;5014962;28;20415;-89
2023/09/15 05:19:53;;;;;;;6.13;3.50;;;13.70;1.00;;;;;;5001930;28;20409;-90
2023/09/15 05:22:19;;;;;;;5.90;4.50;;;13.60;1.00;;;;;;5019647;28;20402;-89
2023/09/15 05:24:44;;;;;;;7.80;4.00;;;13.80;1.00;;;;;;5010061;28;20721;-89
2023/09/15 05:27:13;;;;;;;5.75;3.58;;;13.90;1.00;;;;;;5003017;28;20773;-88
2023/09/15 05:29:42;;;;;;;5.10;3.55;;;14.10;1.00;;;;;;5016115;28;20407;-89
2023/09/15 05:32:10;;;;;;;6.55;3.58;;;;;;;;;;5013526;28;20432;-86
2023/09/15 05:34:36;;;;;;;7.03;4.10;;;;;;;;;;5015627;28;20389;-88
2023/09/15 05:37:04;;;;;;;4.60;3.90;;;;;;;;;;5019255;28;20405;-87
2023/09/15 05:39:33;;;;;;;4.22;3.42;;;;;;;;;;5023129;28;20388;-88
2023/09/15 05:42:02;;;;;;;4.28;3.50;;;;;;;;;;5013549;28;20822;-87
2023/09/15 05:44:28;;;;;;;5.35;3.47;;;13.60;1.00;;;;;;5010265;28;20504;-86
2023/09/15 05:46:54;;;;;;;6.07;3.90;;;;;;;;;;5011861;28;20472;-85
2023/09/15 05:49:20;;;;;;;7.30;3.83;;;;;;;;;;5011039;28;20505;-89
2023/09/15 05:51:48;;;;;;;6.85;4.40;;;;;;;;;;4994697;28;20426;-90
2023/09/15 05:54:25;;;;;;;5.68;3.80;;;;;;;;;;5004123;28;20397;-91
2023/09/15 05:57:02;;;;;;;9.82;4.50;;;;;;;;;;5013925;28;20412;-90
2023/09/15 06:02:28;;;;;;;5.78;4.00;;;13.80;1.00;;;;;;4995854;28;20399;-91
2023/09/15 06:07:43;;;;;;;7.20;4.20;;;13.80;1.00;;;;;;4997256;28;21069;-91
2023/09/15 06:10:15;;;;;;;4.45;3.80;;;13.80;1.00;;;;;;4994271;28;20395;-91
2023/09/15 06:12:41;;;;;;;4.70;4.20;;;;;;;;;;4997619;28;20390;-91
2023/09/15 06:15:07;;;;;;;6.00;4.70;;;14.00;1.00;;;;;;5005647;28;20749;-91
2023/09/15 06:17:43;;;;;;;6.78;4.55;;;13.90;1.00;;;;;;5016791;28;20425;-92
2023/09/15 06:20:12;;;;;;;6.70;4.70;;;14.00;1.00;;;;;;5014505;28;20401;-91
2023/09/15 06:22:38;;;;;;;5.13;4.40;;;14.10;1.00;;;;;;5013233;28;20397;-91
2023/09/15 06:25:15;;;;;;;6.93;4.80;;;14.00;1.00;;;;;;5011875;28;20408;-91
2023/09/15 06:27:40;;;;;;;6.75;4.70;;;13.90;1.00;;;;;;5013588;28;20392;-90
2023/09/15 06:30:10;;;;;;;4.90;4.40;;;;;;;;;;5012882;28;20818;-91
2023/09/15 06:32:43;;;;;;;4.80;4.00;;;14.20;1.00;;;;;;5013007;28;20397;-90
2023/09/15 06:35:25;;;;;;;6.43;4.65;;;;;;;;;;5016348;28;20401;-90
2023/09/15 06:38:04;;;;;;;7.27;5.07;;;14.20;1.00;;;;;;5019326;28;20413;-90
2023/09/15 06:40:33;;;;;;;6.10;5.15;;;;;;;;;;5011170;28;20410;-90
2023/09/15 06:43:04;;;;;;;8.23;4.82;;;14.30;1.00;;;;;;4999344;28;20437;-91
2023/09/15 06:45:37;;;;;;;5.97;4.75;;;14.30;1.00;;;;;;4994856;28;20422;-91
2023/09/15 06:48:18;;;;;;;6.85;4.50;;;14.70;1.00;;;;;;4993797;28;20418;-91
2023/09/15 06:51:05;;;;;;;6.22;4.50;;;;;;;;;;4995082;28;20481;-91
2023/09/15 06:53:42;;;;;;;6.80;4.80;;;14.60;1.00;;;;;;4994152;28;20390;-92
2023/09/15 06:56:32;;;;;;;;;;;;;;;;;;;;;
2023/09/15 06:59:27;;;;;;;7.00;4.80;;;15.00;1.00;;;;;;5018873;28;20492;-90
2023/09/15 07:04:43;;;;;;;5.88;5.15;;;14.90;1.00;;;;;;5016355;28;20814;-93
2023/09/15 07:07:27;;;;;;;8.70;5.25;;;15.00;1.00;;;;;;4999570;28;20434;-92
2023/09/15 07:10:08;;;;;;;5.18;4.70;;;15.00;1.00;;;;;;5001105;28;20411;-92
2023/09/15 07:12:40;;;;;;;5.95;5.30;;;;;;;;;;5003926;28;20412;-92
2023/09/15 07:15:06;;;;;;;6.88;5.10;;;15.30;1.00;;;;;;5014835;28;20392;-92
2023/09/15 07:17:48;;;;;;;6.30;5.67;;;15.20;1.00;;;;;;5013797;28;20385;-91
2023/09/15 07:20:48;;;;;;;6.95;5.60;;;15.30;1.00;;;;;;5013724;28;20473;-92
2023/09/15 07:24:20;;;;;;;6.20;5.60;;;15.40;1.00;;;;;;5001423;28;20410;-92
2023/09/15 07:26:51;;;;;;;6.80;6.10;;;15.50;1.00;;;;;;4950173;28;20433;-91
2023/09/15 07:29:58;;;;;;;7.07;5.70;;;15.80;1.00;;;;;;4926031;29;20522;-91
2023/09/15 07:42:52;;;;;;;11.68;6.20;;;16.00;1.00;;;;;;4979076;28;20443;-90
2023/09/15 07:45:18;;;;;;;7.90;5.90;;;17.30;1.00;;;;;;4979146;28;20475;-90
2023/09/15 07:47:44;;;;;;;7.15;5.97;;;;;;;;;;4980934;28;20431;-91
2023/09/15 07:50:09;;;;;;;9.90;6.03;;;16.10;1.00;;;;;;4979330;28;20468;-91
2023/09/15 07:52:35;;;;;;;6.90;6.20;;;16.10;1.00;;;;;;4987931;28;20396;-90
2023/09/15 07:55:00;;;;;;;7.40;5.93;;;16.30;1.00;;;;;;4994449;28;20419;-91
2023/09/15 07:57:28;;;;;;;6.95;5.82;;;16.10;1.00;;;;;;4979751;28;20416;-90
2023/09/15 07:59:54;;;;;;;6.95;6.25;;;16.50;1.00;;;;;;4976580;28;20828;-91
2023/09/15 08:02:20;;;;;;;6.53;5.67;;;16.60;1.00;;;;;;4976503;28;20432;-91
2023/09/15 08:04:46;;;;;;;7.80;6.30;;;;;;;;;;4977094;28;20404;-90
2023/09/15 08:07:12;;;;;;;6.43;5.28;;;16.60;1.00;;;;;;4975509;28;20439;-90
2023/09/15 08:09:38;;;;;;;7.07;5.53;;;16.60;1.00;;;;;;4978315;28;20474;-90
2023/09/15 08:12:03;;;;;;;9.55;5.82;;;15.20;1.00;;;;;;4975112;28;20427;-91
2023/09/15 08:14:29;;;;;;;7.43;5.20;;;16.50;1.00;;;;;;4976380;28;20397;-91
2023/09/15 08:16:55;;;;;;;6.27;5.40;;;;;;;;;;4976774;28;20385;-91
2023/09/15 08:19:20;;;;;;;7.88;5.00;;;16.70;1.00;;;;;;4978150;28;20403;-90
2023/09/15 08:21:47;;;;;;;7.20;5.27;;;16.60;1.00;;;;;;4976283;28;21008;-90
2023/09/15 08:24:20;;;;;;;5.50;4.97;;;16.70;1.00;;;;;;4975933;28;20431;-90
2023/09/15 08:26:59;;;;;;;6.00;5.20;;;;;;;;;;4979109;28;20403;-91
2023/09/15 08:29:48;;;;;;;5.50;4.90;;;;;;;;;;4994256;28;20410;-92
2023/09/15 08:32:23;;;;;;;5.70;5.20;;;;;;;;;;4997211;28;20475;-90
2023/09/15 08:35:20;;;;;;;7.78;4.85;;;16.80;1.00;;;;;;4996450;28;20467;-91
2023/09/15 08:37:52;;;;;;;5.60;5.10;;;;;;;;;;4991312;28;20504;-92
2023/09/15 08:40:24;;;;;;;7.57;4.70;;;17.40;1.00;;;;;;4982023;28;20396;-90
2023/09/15 08:42:50;;;;;;;5.88;4.30;;;;;;;;;;4982105;28;20431;-92
2023/09/15 08:45:23;;;;;;;6.20;4.80;;;;;;;;;;4989649;28;20392;-91
2023/09/15 08:47:54;;;;;;;7.18;4.60;;;17.60;1.00;;;;;;4978545;28;20471;-92
2023/09/15 08:50:27;;;;;;;5.03;4.20;;;;;;;;;;4976686;28;20804;-91
2023/09/15 08:52:55;;;;;;;7.13;4.75;;;;;;;;;;4974521;28;20804;-90
2023/09/15 08:55:21;;;;;;;6.30;5.15;;;17.70;1.00;;;;;;4974160;28;20396;-91
2023/09/15 08:57:47;;;;;;;6.38;4.60;;;;;;;;;;4973941;28;20407;-91
2023/09/15 09:00:42;;;;;;;5.10;4.60;;;18.00;1.00;;;;;;4973656;28;20404;-93
2023/09/15 09:03:12;;;;;;;6.50;4.40;;;18.30;1.00;;;;;;4976484;28;20408;-91
2023/09/15 09:05:54;;;;;;;5.70;4.87;;;18.10;1.00;;;;;;4977261;28;20404;-91
2023/09/15 09:08:42;;;;;;;5.95;4.50;;;21.40;1.00;;;;;;4976503;28;20490;-92
2023/09/15 09:11:32;;;;;;;7.25;5.50;;;;;;;;;;4979497;28;20460;-91
2023/09/15 09:14:01;;;;;;;5.53;4.97;;;18.30;1.00;;;;;;4988655;28;20457;-90
2023/09/15 09:16:30;;;;;;;6.13;5.50;;;18.30;1.00;;;;;;4990868;28;20423;-91
2023/09/15 09:19:06;;;;;;;5.18;4.38;;;18.60;1.00;;;;;;4997056;28;20400;-90
2023/09/15 09:21:34;;;;;;;6.50;4.97;;;18.50;1.00;;;;;;4985543;28;20423;-92
2023/09/15 09:24:02;;;;;;;8.07;4.80;;;18.10;1.00;;;;;;4976862;28;20473;-91
2023/09/15 09:26:32;;;;;;;6.00;4.70;;;;;;;;;;4977477;28;20392;-90
2023/09/15 09:29:00;;;;;;;4.68;4.22;;;18.60;1.00;;;;;;4975967;28;20412;-91
2023/09/15 09:31:30;;;;;;;5.07;4.57;;;18.40;1.00;;;;;;4975800;28;20419;-90
2023/09/15 09:34:07;;;;;;;6.33;4.50;;;18.80;1.00;;;;;;4975427;28;20400;-92
2023/09/15 09:36:38;;;;;;;4.07;3.67;;;19.00;1.00;;;;;;4979666;28;20396;-92
2023/09/15 09:39:13;;;;;;;5.25;4.15;;;;;;;;;;4991668;28;20508;-92
2023/09/15 09:41:43;;;;;;;5.60;4.55;;;19.70;1.00;;;;;;4975970;28;20407;-92
2023/09/15 09:44:15;;;;;;;5.70;4.00;;;19.20;1.00;;;;;;4975243;28;20404;-92
2023/09/15 09:46:57;;;;;;;7.45;4.20;;;19.30;1.00;;;;;;4975572;28;20396;-91
2023/09/15 09:49:26;;;;;;;6.20;5.10;;;19.30;1.00;;;;;;4975751;28;20820;-91
2023/09/15 09:51:52;;;;;;;6.80;4.72;;;;;;;;;;4988768;28;20412;-91
2023/09/15 09:54:18;;;;;;;5.97;5.30;;;;;;;;;;4976481;28;20393;-91
2023/09/15 09:56:57;;;;;;;7.20;6.50;;;19.40;1.00;;;;;;4976940;28;20392;-92
2023/09/15 09:59:23;;;;;;;7.60;6.13;;;19.50;1.00;;;;;;4980454;28;20848;-91
2023/09/15 10:01:49;;;;;;;7.97;6.03;;;19.40;1.00;;;;;;4976477;28;20439;-91
2023/09/15 10:04:21;;;;;;;6.90;6.30;;;;;;;;;;4976881;28;20431;-91
2023/09/15 10:06:46;;;;;;;7.38;6.22;;;19.70;1.00;;;;;;4976236;28;20399;-90
2023/09/15 10:09:14;;;;;;;7.63;5.97;;;;;;;;;;4975797;28;20503;-91
2023/09/15 10:11:46;;;;;;;6.70;6.00;;;;;;;;;;4974573;28;20463;-91
2023/09/15 10:14:15;;;;;;;6.60;5.72;;;19.90;1.00;;;;;;4974508;28;20922;-91
2023/09/15 10:16:43;;;;;;;7.32;6.50;;;21.30;1.00;;;;;;4974433;28;20765;-91
2023/09/15 10:19:10;;;;;;;6.10;5.50;;;20.10;1.00;;;;;;4974192;28;20404;-91
2023/09/15 10:25:14;;;;;;;5.32;4.82;;;20.40;1.00;;;;;;5052219;22;20453;-91
2023/09/15 10:28:06;;;;;;;5.97;4.70;;;20.40;1.00;;;;;;4951767;28;20407;-91
2023/09/15 10:30:41;;;;;;;5.57;5.07;;;21.50;1.00;;;;;;4937392;29;20403;-92
2023/09/15 10:33:09;;;;;;;6.38;5.78;;;20.60;1.00;;;;;;4961068;28;20432;-89
2023/09/15 10:36:13;;;;;;;5.72;5.15;;;20.60;1.00;;;;;;4974214;28;20889;-90
2023/09/15 10:39:00;;;;;;;5.80;5.30;;;;;;;;;;4972916;28;20412;-89
2023/09/15 10:41:44;;;;;;;6.90;4.57;;;20.60;1.00;;;;;;4971820;28;20407;-89
2023/09/15 10:44:14;;;;;;;5.88;4.70;;;20.70;1.00;;;;;;4989587;28;20443;-88
2023/09/15 10:46:48;;;;;;;6.20;5.10;;;20.90;1.00;;;;;;4956209;28;20819;-88
2023/09/15 10:49:24;;;;;;;5.90;5.40;;;;;;;;;;4968440;28;20474;-89
2023/09/15 10:52:33;;;;;;;7.32;5.30;;;21.10;1.00;;;;;;4972840;28;20892;-89
2023/09/15 10:58:46;;;;;;;4.97;4.50;;;21.20;1.00;;;;;;4830939;29;20495;-89
2023/09/15 11:01:34;;;;;;;5.93;5.32;;;21.50;1.00;;;;;;4805432;29;20419;-89
2023/09/15 11:04:04;;;;;;;6.47;5.03;;;21.60;1.00;;;;;;4877169;29;20503;-89
2023/09/15 11:06:33;;;;;;;5.38;4.68;;;;;;;;;;4862797;29;20409;-88
2023/09/15 11:09:57;;;;;;;6.75;5.25;;;21.70;1.00;;;;;;4877203;29;20440;-89
2023/09/15 11:12:26;;;;;;;5.30;4.20;;;23.80;1.00;;;;;;4945423;28;20407;-89
2023/09/15 11:15:00;;;;;;;6.40;4.80;;;22.10;1.00;;;;;;4934901;29;20763;-90
2023/09/15 11:17:56;;;;;;;8.30;5.78;;;25.00;1.00;;;;;;4967613;28;20415;-88
2023/09/15 11:20:22;;;;;;;5.50;5.00;;;22.70;1.00;;;;;;4950635;28;20402;-89
2023/09/15 11:22:57;;;;;;;6.40;5.80;;;22.90;1.00;;;;;;4953276;28;20770;-88
2023/09/15 11:25:23;;;;;;;5.00;4.60;;;22.70;1.00;;;;;;4956179;28;20446;-90
2023/09/15 11:28:03;;;;;;;5.78;4.47;;;23.30;1.00;;;;;;4956834;29;20389;-88
2023/09/15 11:30:29;;;;;;;6.68;4.93;;;23.50;1.00;;;;;;4956423;28;20497;-88
2023/09/15 11:33:07;;;;;;;6.25;5.20;;;25.10;1.00;;;;;;4960903;28;20511;-88
2023/09/15 11:35:36;;;;;;;5.72;5.13;;;23.90;1.00;;;;;;4965499;29;20398;-88
2023/09/15 11:38:05;;;;;;;5.45;4.40;;;25.10;1.00;;;;;;4970037;29;20382;-89
2023/09/15 11:40:33;;;;;;;5.28;4.50;;;25.00;1.00;;;;;;4969012;28;20413;-89
2023/09/15 11:43:02;;;;;;;5.15;4.65;;;;;;;;;;4995952;28;20399;-89
2023/09/15 11:48:06;;;;;;;5.80;5.03;;;25.00;1.00;;;;;;5018290;22;20429;-90
2023/09/15 11:50:41;;;;;;;6.45;4.60;;;24.80;1.00;;;;;;5018248;28;20379;-92
2023/09/15 11:53:31;;;;;;;5.07;4.60;;;24.50;1.00;;;;;;5017651;28;20505;-91
2023/09/15 12:03:38;;;;;;;5.50;5.00;;;24.90;1.00;;;;;;4957985;28;20455;-91
2023/09/15 12:09:13;;;;;;;5.53;4.88;;;25.00;1.00;;;;;;4957805;29;20412;-88
2023/09/15 12:15:01;;;;;;;6.75;4.70;;;23.40;1.00;;;;;;4967998;28;20389;-91
2023/09/15 12:17:47;;;;;;;4.90;4.50;;;24.90;1.00;;;;;;4963793;28;20398;-91
2023/09/15 12:20:14;;;;;;;6.40;4.97;;;26.20;1.00;;;;;;4981825;28;20400;-91
2023/09/15 12:22:57;;;;;;;5.30;4.80;;;24.90;1.00;;;;;;4962284;28;20423;-90
2023/09/15 12:25:28;;;;;;;6.35;5.10;;;24.80;1.00;;;;;;4981926;28;20390;-90
2023/09/15 12:27:56;;;;;;;5.40;4.90;;;24.80;1.00;;;;;;4986860;28;20405;-89
2023/09/15 12:30:27;;;;;;;5.55;4.28;;;24.60;1.00;;;;;;4998411;28;20402;-88
2023/09/15 12:32:58;;;;;;;6.28;5.40;;;24.50;1.00;;;;;;5008395;28;20384;-89
2023/09/15 12:35:26;;;;;;;4.82;4.43;;;24.80;1.00;;;;;;4997203;28;20397;-89
2023/09/15 12:38:03;;;;;;;5.10;4.60;;;24.50;1.00;;;;;;5011525;28;20403;-90
2023/09/15 12:40:34;;;;;;;4.90;4.50;;;24.40;1.00;;;;;;5011979;28;20397;-89
2023/09/15 12:43:16;;;;;;;5.68;5.13;;;24.30;1.00;;;;;;4997121;28;20476;-88
2023/09/15 12:46:06;;;;;;;;;;;;;;;;;;;;;
2023/09/15 12:48:32;;;;;;;5.80;4.72;;;24.60;1.00;;;;;;4999999;28;20501;-90
2023/09/15 12:51:07;;;;;;;4.80;4.40;;;;;;;;;;4999512;28;20422;-90
2023/09/15 12:53:43;;;;;;;5.43;4.82;;;25.30;1.00;;;;;;4997504;28;20444;-91
2023/09/15 12:56:12;;;;;;;5.78;4.60;;;25.50;1.00;;;;;;5016355;28;21096;-91
2023/09/15 12:58:46;;;;;;;4.85;4.45;;;25.40;1.00;;;;;;5007638;28;20414;-91
2023/09/15 13:01:11;;;;;;;4.60;4.20;;;25.00;1.00;;;;;;5000722;28;20426;-90
2023/09/15 13:03:40;;;;;;;5.30;4.80;;;25.20;1.00;;;;;;4995391;28;20397;-88
2023/09/15 13:06:12;;;;;;;6.10;5.50;;;25.60;1.00;;;;;;4993364;28;20386;-91
2023/09/15 13:08:37;;;;;;;6.20;4.40;;;25.40;1.00;;;;;;5001452;28;20437;-91
2023/09/15 13:11:05;;;;;;;5.17;4.67;;;25.60;1.00;;;;;;5012718;28;20390;-90
2023/09/15 13:13:31;;;;;;;4.88;4.38;;;25.70;1.00;;;;;;5008580;28;20434;-89
2023/09/15 13:15:59;;;;;;;5.00;4.60;;;25.70;1.00;;;;;;4985826;28;20392;-91
2023/09/15 13:18:33;;;;;;;6.20;4.95;;;25.60;1.00;;;;;;4998318;28;20397;-90
2023/09/15 13:20:58;;;;;;;5.60;4.50;;;28.40;1.00;;;;;;4996324;28;20394;-91
2023/09/15 13:23:24;;;;;;;5.07;4.67;;;25.20;1.00;;;;;;4996907;28;20421;-91
2023/09/15 13:25:50;;;;;;;5.10;4.60;;;25.40;1.00;;;;;;4995886;28;20387;-92
2023/09/15 13:28:24;;;;;;;5.43;4.93;;;25.50;1.00;;;;;;4998923;28;20398;-92
2023/09/15 13:31:13;;;;;;;7.13;4.90;;;25.40;1.00;;;;;;5004478;28;20410;-91
2023/09/15 13:33:46;;;;;;;5.70;4.45;;;25.40;1.00;;;;;;4984750;23;20444;-91
2023/09/15 13:36:22;;;;;;;4.90;4.50;;;25.70;1.00;;;;;;4976808;28;20404;-91
2023/09/15 13:39:08;;;;;;;5.10;4.60;;;25.50;1.00;;;;;;4976643;28;20499;-90
2023/09/15 13:41:54;;;;;;;4.78;4.38;;;26.00;1.00;;;;;;4975937;28;20400;-91
2023/09/15 13:44:24;;;;;;;5.25;4.75;;;27.40;1.00;;;;;;4959312;29;20401;-89
2023/09/15 13:46:58;;;;;;;6.35;4.80;;;25.80;1.00;;;;;;4963282;29;20386;-90
2023/09/15 13:49:24;;;;;;;5.10;4.70;;;25.90;1.00;;;;;;4969352;29;20414;-91
2023/09/15 13:54:36;;;;;;;5.28;4.50;;;26.20;1.00;;;;;;4956387;29;20406;-89
2023/09/15 13:57:05;;;;;;;4.80;4.40;;;26.30;1.00;;;;;;4991776;28;20396;-90
2023/09/15 13:59:31;;;;;;;4.55;4.15;;;26.20;1.00;;;;;;4979644;28;20394;-90
2023/09/15 14:02:18;;;;;;;4.73;4.33;;;26.20;1.00;;;;;;4979712;28;20429;-91
2023/09/15 14:04:49;;;;;;;5.10;4.60;;;28.30;1.00;;;;;;4978429;28;20470;-89
2023/09/15 14:07:15;;;;;;;5.30;4.80;;;26.50;1.00;;;;;;4979808;28;20393;-90
2023/09/15 14:09:40;;;;;;;5.10;4.70;;;26.00;1.00;;;;;;4970139;28;20817;-88
2023/09/15 14:12:39;;;;;;;5.13;4.63;;;26.20;1.00;;;;;;4966481;28;20558;-91
2023/09/15 14:15:09;;;;;;;4.82;4.18;;;26.00;1.00;;;;;;4947166;29;20409;-91
2023/09/15 14:17:35;;;;;;;5.35;4.78;;;26.30;1.00;;;;;;4965977;29;20401;-89
2023/09/15 14:20:01;;;;;;;5.97;4.63;;;27.20;1.00;;;;;;4966837;29;20406;-89
2023/09/15 14:22:27;;;;;;;6.25;4.70;;;26.10;1.00;;;;;;4959177;28;20417;-89
2023/09/15 14:25:08;;;;;;;5.20;4.80;;;25.90;1.00;;;;;;4964251;29;20390;-93
2023/09/15 14:31:47;;;;;;;;;;;;;;;;;;;;;
2023/09/15 14:34:45;;;;;;;;;;;;;;;;;;;;;
2023/09/15 14:44:49;;;;;;;6.60;4.70;;;26.50;1.00;;;;;;4873554;29;20530;-92
2023/09/15 14:47:53;;;;;;;4.88;4.47;;;29.90;1.00;;;;;;4854435;29;20420;-91
2023/09/15 14:51:08;;;;;;;;;;;;;;;;;;;;;
2023/09/15 14:53:36;;;;;;;6.15;4.85;;;27.10;1.00;;;;;;4956247;28;20508;-88
2023/09/15 14:59:52;;;;;;;5.30;4.90;;;28.70;1.00;;;;;;4896562;29;20407;-91
2023/09/15 15:03:01;;;;;;;;;;;;;;;;;;;;;
2023/09/15 15:09:26;;;;;;;6.32;4.95;;;28.60;1.00;;;;;;4876687;29;20464;-89
2023/09/15 15:11:57;;;;;;;7.07;5.40;;;26.40;1.00;;;;;;4866052;29;20401;-90
2023/09/15 15:15:08;;;;;;;;;;;;;;;;;;;;;
2023/09/15 15:21:06;;;;;;;6.70;4.75;;;28.20;1.00;;;;;;4875817;29;20390;-90
2023/09/15 15:23:40;;;;;;;5.88;4.50;;;26.00;1.00;;;;;;4945801;28;20410;-90
2023/09/15 15:26:15;;;;;;;5.30;4.30;;;25.40;1.00;;;;;;4978593;28;20397;-91
2023/09/15 15:28:47;;;;;;;5.25;4.70;;;26.20;1.00;;;;;;4965940;29;20498;-89
2023/09/15 15:31:31;;;;;;;5.35;4.85;;;26.70;1.00;;;;;;4960252;29;20397;-90
2023/09/15 15:34:18;;;;;;;5.47;4.88;;;25.70;1.00;;;;;;4961270;28;20438;-91
2023/09/15 15:36:51;;;;;;;5.93;5.15;;;26.00;1.00;;;;;;4974500;28;20408;-91
2023/09/15 15:39:50;;;;;;;4.93;4.43;;;25.10;1.00;;;;;;4957032;29;20397;-90
2023/09/15 15:42:40;;;;;;;5.20;4.72;;;25.20;1.00;;;;;;4945010;28;20426;-88
2023/09/15 15:45:14;;;;;;;5.10;4.60;;;22.80;1.00;;;;;;4954851;29;20433;-91
2023/09/15 15:48:23;;;;;;;4.70;4.30;;;26.60;1.00;;;;;;4956633;29;20394;-91
2023/09/15 15:51:02;;;;;;;4.95;4.55;;;26.20;1.00;;;;;;4952907;29;20427;-91
2023/09/15 15:53:31;;;;;;;5.47;4.97;;;25.20;1.00;;;;;;4957655;28;20392;-90
2023/09/15 15:56:00;;;;;;;5.65;4.85;;;25.60;1.00;;;;;;4970992;28;20429;-90
2023/09/15 15:58:49;;;;;;;5.10;4.60;;;24.40;1.00;;;;;;4955978;29;20532;-89
2023/09/15 16:01:18;;;;;;;5.50;4.75;;;25.10;1.00;;;;;;4967031;28;20485;-87
2023/09/15 16:03:43;;;;;;;5.22;4.82;;;25.30;1.00;;;;;;4948782;28;20406;-85
2023/09/15 16:06:09;;;;;;;5.20;4.80;;;25.50;1.00;;;;;;4953193;29;20397;-87
2023/09/15 16:08:35;;;;;;;6.30;4.70;;;25.60;1.00;;;;;;4951397;29;20409;-84
2023/09/15 16:11:03;;;;;;;5.28;4.60;;;25.00;1.00;;;;;;4955944;28;20870;-84
2023/09/15 16:13:28;;;;;;;4.88;4.47;;;24.60;1.00;;;;;;4962061;28;20429;-85
2023/09/15 16:15:54;;;;;;;4.90;4.50;;;24.70;1.00;;;;;;4962652;28;21032;-84
2023/09/15 16:18:19;;;;;;;6.53;4.50;;;25.40;1.00;;;;;;4962039;28;20784;-84
2023/09/15 16:20:46;;;;;;;5.03;4.63;;;25.60;1.00;;;;;;4964160;28;20398;-84
2023/09/15 16:23:12;;;;;;;5.30;4.80;;;25.30;1.00;;;;;;4963698;28;20471;-84
2023/09/15 16:25:39;;;;;;;5.28;4.80;;;24.80;1.00;;;;;;4961844;28;20398;-84
2023/09/15 16:28:05;;;;;;;5.30;4.80;;;24.60;1.00;;;;;;4961059;28;20480;-85
2023/09/15 16:30:38;;;;;;;5.00;4.60;;;26.40;1.00;;;;;;4960738;28;20436;-84
2023/09/15 16:33:05;;;;;;;5.40;5.00;;;24.00;1.00;;;;;;4962024;28;20385;-85
2023/09/15 16:35:32;;;;;;;5.20;4.70;;;24.70;1.00;;;;;;4961003;28;20497;-85
2023/09/15 16:37:58;;;;;;;5.50;4.90;;;24.60;1.00;;;;;;4953457;28;20409;-85
2023/09/15 16:40:23;;;;;;;5.32;4.88;;;24.40;1.00;;;;;;4958906;28;20898;-85
2023/09/15 16:42:49;;;;;;;5.00;4.60;;;24.60;1.00;;;;;;4961259;28;20751;-85
2023/09/15 16:45:14;;;;;;;5.10;4.68;;;24.60;1.00;;;;;;4966561;28;20392;-85
2023/09/15 16:47:40;;;;;;;5.60;5.10;;;24.60;1.00;;;;;;4965579;28;20405;-83
2023/09/15 16:50:08;;;;;;;5.40;4.90;;;24.40;1.00;;;;;;4985164;28;20413;-83
2023/09/15 16:52:34;;;;;;;5.38;4.88;;;24.30;1.00;;;;;;4978766;28;20460;-83
2023/09/15 16:54:59;;;;;;;6.82;5.10;;;23.20;1.00;;;;;;4980000;28;20398;-83
2023/09/15 16:57:25;;;;;;;5.93;4.30;;;23.60;1.00;;;;;;4978391;28;20414;-84
2023/09/15 16:59:55;;;;;;;5.90;5.40;;;22.60;1.00;;;;;;4979164;28;20390;-83
2023/09/15 17:02:20;;;;;;;6.53;5.55;;;23.10;1.00;;;;;;4971546;29;20398;-84
2023/09/15 17:04:46;;;;;;;5.83;5.33;;;22.90;1.00;;;;;;4966849;28;20417;-84
2023/09/15 17:07:11;;;;;;;5.80;4.88;;;23.80;1.00;;;;;;4966926;29;20394;-85
2023/09/15 17:09:38;;;;;;;6.30;5.70;;;22.90;1.00;;;;;;4967304;28;20420;-85
2023/09/15 17:12:04;;;;;;;5.57;5.17;;;22.20;1.00;;;;;;4961058;28;20425;-85
2023/09/15 17:14:29;;;;;;;5.90;5.40;;;22.50;1.00;;;;;;4962830;29;20802;-84
2023/09/15 17:16:55;;;;;;;6.30;5.80;;;22.70;1.00;;;;;;4960437;29;20425;-85
2023/09/15 17:19:20;;;;;;;5.60;4.80;;;22.30;1.00;;;;;;4967267;29;20394;-86
2023/09/15 17:21:47;;;;;;;5.85;5.18;;;22.10;1.00;;;;;;4961408;28;20401;-86
2023/09/15 17:24:13;;;;;;;6.60;5.40;;;22.10;1.00;;;;;;4958574;29;20416;-84
2023/09/15 17:26:46;;;;;;;7.32;5.40;;;22.00;1.00;;;;;;4982885;28;20401;-85
2023/09/15 17:29:13;;;;;;;5.70;5.25;;;21.10;1.00;;;;;;4957029;29;20410;-84
2023/09/15 17:31:39;;;;;;;5.50;5.00;;;21.30;1.00;;;;;;4955095;29;20949;-85
2023/09/15 17:34:05;;;;;;;6.07;5.10;;;21.30;1.00;;;;;;4956742;28;20398;-85
2023/09/15 17:36:32;;;;;;;6.10;5.50;;;21.70;1.00;;;;;;4958054;29;20948;-85
2023/09/15 17:38:58;;;;;;;6.32;5.72;;;21.70;1.00;;;;;;4957751;29;20410;-85
2023/09/15 17:41:24;;;;;;;5.60;5.10;;;21.50;1.00;;;;;;4955287;29;20402;-84
2023/09/15 17:43:49;;;;;;;7.07;5.50;;;21.40;1.00;;;;;;4955304;28;20426;-85
2023/09/15 17:46:15;;;;;;;5.80;5.30;;;21.30;1.00;;;;;;4955344;29;20429;-85
2023/09/15 17:48:40;;;;;;;6.33;5.40;;;21.20;1.00;;;;;;4954701;29;20418;-85
2023/09/15 17:51:06;;;;;;;6.33;5.20;;;20.10;1.00;;;;;;4954247;29;20397;-84
2023/09/15 17:53:32;;;;;;;6.25;5.40;;;24.30;1.00;;;;;;4963203;28;20886;-85
2023/09/15 17:55:57;;;;;;;7.80;5.73;;;21.10;1.00;;;;;;4967488;29;20390;-85
2023/09/15 17:58:23;;;;;;;5.70;5.20;;;22.10;1.00;;;;;;4961852;29;20744;-84
2023/09/15 18:00:49;;;;;;;6.70;5.93;;;19.90;1.00;;;;;;4956147;28;20418;-85
2023/09/15 18:03:14;;;;;;;6.30;5.70;;;21.00;1.00;;;;;;4956195;28;20394;-84
2023/09/15 18:05:40;;;;;;;7.00;6.40;;;19.90;1.00;;;;;;4956082;29;20409;-84
2023/09/15 18:08:07;;;;;;;6.25;5.65;;;20.40;1.00;;;;;;4956155;29;20400;-85
2023/09/15 18:10:32;;;;;;;7.13;6.43;;;20.80;1.00;;;;;;4955308;29;20414;-84
2023/09/15 18:12:58;;;;;;;8.05;6.30;;;20.00;1.00;;;;;;4955327;28;20932;-83
2023/09/15 18:15:24;;;;;;;7.00;6.10;;;19.70;1.00;;;;;;4956413;29;20394;-84
2023/09/15 18:17:50;;;;;;;8.50;6.60;;;20.30;1.00;;;;;;4955724;29;20405;-84
2023/09/15 18:20:15;;;;;;;8.63;6.80;;;20.60;1.00;;;;;;4957023;28;20430;-84
2023/09/15 18:22:41;;;;;;;7.07;6.47;;;20.50;1.00;;;;;;4956946;28;20413;-84